Time;durP1;ratioP1;P1;durP2;ratioP2;P2;SDS_P1;SDS_P2;PMS_P1;PMS_P2;Temp;Humidity;BMP_temperature;BMP_pressure;BME280_temperature;BME280_humidity;BME280_pressure;Samples;Min_cycle;Max_cycle;Signal;HPM_P1;HPM_P2
2023/02/11 00:01:59;;;;;;;;;58.50;47.25;;;;;9.59;61.66;103040.38;6272000;22;45524;-77
2023/02/11 00:04:25;;;;;;;;;61.50;44.50;;;;;9.58;61.58;103048.25;6272069;22;45688;-78
2023/02/11 00:06:50;;;;;;;;;57.50;44.75;;;;;9.54;61.88;103039.66;6272248;22;45681;-77
2023/02/11 00:09:16;;;;;;;;;57.75;45.50;;;;;9.47;62.08;103029.38;6271902;22;45786;-76
2023/02/11 00:11:41;;;;;;;;;59.75;45.75;;;;;9.49;61.75;103031.06;6271295;22;46513;-77
2023/02/11 00:14:07;;;;;;;;;57.00;46.00;;;;;9.46;61.87;103033.75;6272132;22;46014;-77
2023/02/11 00:16:32;;;;;;;;;57.75;45.25;;;;;9.41;62.27;103016.47;6271463;22;45440;-77
2023/02/11 00:19:01;;;;;;;;;59.25;46.00;;;;;9.43;62.13;103026.00;6272529;22;45586;-78
2023/02/11 00:24:48;;;;;;;;;46.75;40.25;;;;;9.37;61.89;103020.06;6272283;22;45442;-79
2023/02/11 00:27:14;;;;;;;;;57.00;45.50;;;;;9.37;62.03;103022.69;6271556;22;45662;-79
2023/02/11 00:29:39;;;;;;;;;58.75;47.50;;;;;9.39;62.14;103026.13;6271690;22;45657;-77
2023/02/11 00:32:05;;;;;;;;;63.50;50.00;;;;;9.38;62.21;103016.56;6271258;22;47112;-77
2023/02/11 00:34:31;;;;;;;;;56.25;43.75;;;;;9.31;62.11;103009.78;6272150;22;45860;-77
2023/02/11 00:36:57;;;;;;;;;59.75;47.75;;;;;9.36;62.04;103018.34;6272071;22;45786;-77
2023/02/11 00:39:22;;;;;;;;;55.25;45.25;;;;;9.33;62.22;103016.69;6272447;22;45487;-77
2023/02/11 00:41:48;;;;;;;;;67.50;51.50;;;;;9.28;62.34;103011.56;6271935;22;46243;-77
2023/02/11 00:44:13;;;;;;;;;64.25;46.75;;;;;9.34;62.23;103018.38;6273629;22;45534;-76
2023/02/11 00:46:38;;;;;;;;;63.00;48.00;;;;;9.28;62.22;103018.59;6273122;22;45641;-79
2023/02/11 00:49:03;;;;;;;;;61.00;47.00;;;;;9.33;62.69;103019.31;6273197;22;49692;-77
2023/02/11 00:55:04;;;;;;;;;63.25;48.00;;;;;9.24;62.32;103009.94;6267518;22;46065;-78
2023/02/11 00:57:29;;;;;;;;;58.50;47.00;;;;;9.23;62.58;103010.00;6246908;22;45843;-78
2023/02/11 00:59:54;;;;;;;;;62.25;48.25;;;;;9.15;62.30;102999.72;6268553;22;45816;-77
2023/02/11 01:02:20;;;;;;;;;59.75;48.25;;;;;9.13;62.56;103000.66;6272027;22;46275;-77
2023/02/11 01:04:45;;;;;;;;;60.00;48.00;;;;;9.18;62.30;103010.09;6271933;22;46092;-75
2023/02/11 01:07:10;;;;;;;;;62.00;46.75;;;;;9.18;62.46;103017.94;6271818;22;45646;-77
2023/02/11 01:09:38;;;;;;;;;61.33;49.33;;;;;9.18;62.44;103009.22;6273155;22;45550;-76
2023/02/11 01:12:04;;;;;;;;;60.50;46.50;;;;;9.18;62.46;103002.25;6272523;22;45507;-78
2023/02/11 01:14:29;;;;;;;;;57.25;44.25;;;;;9.18;62.47;102993.53;6243875;22;46358;-78
2023/02/11 01:16:55;;;;;;;;;57.00;43.50;;;;;9.17;62.57;102984.00;6271337;22;45441;-78
2023/02/11 01:19:20;;;;;;;;;58.00;43.75;;;;;9.18;62.27;102994.41;6271999;22;45487;-77
2023/02/11 01:25:08;;;;;;;;;60.50;43.75;;;;;9.18;62.39;102997.03;6271654;22;46093;-78
2023/02/11 01:27:33;;;;;;;;;62.00;46.50;;;;;9.14;62.45;102990.16;6272127;22;45577;-78
2023/02/11 01:29:59;;;;;;;;;62.75;50.00;;;;;9.17;62.53;102992.72;6272411;22;45590;-76
2023/02/11 01:32:24;;;;;;;;;63.00;48.25;;;;;9.17;62.45;102992.72;6271763;22;46221;-78
2023/02/11 01:34:49;;;;;;;;;56.25;42.00;;;;;9.19;62.54;102996.13;6272282;22;46298;-77
2023/02/11 01:40:36;;;;;;;;;60.25;46.75;;;;;9.22;62.52;102987.34;6271920;22;45628;-75
2023/02/11 01:43:02;;;;;;;;;59.50;46.75;;;;;9.21;62.48;102980.41;6271350;22;46651;-76
2023/02/11 01:45:46;;;;;;;;;56.75;43.75;;;;;9.22;62.41;102983.00;6270454;22;46044;-75
2023/02/11 01:48:23;;;;;;;;;57.50;46.00;;;;;9.18;62.54;102981.31;6270773;22;45785;-77
2023/02/11 01:50:56;;;;;;;;;56.25;45.75;;;;;9.22;62.51;102987.34;6271511;22;45575;-77
2023/02/11 01:59:00;;;;;;;;;58.75;45.50;;;;;9.15;62.38;102981.44;6271684;22;45598;-75
2023/02/11 02:01:27;;;;;;;;;58.00;47.75;;;;;9.19;62.55;102988.28;6271289;22;45733;-77
2023/02/11 02:03:59;;;;;;;;;57.25;46.00;;;;;9.26;62.19;102991.59;6271562;22;46385;-78
2023/02/11 02:06:42;;;;;;;;;56.25;44.50;;;;;9.24;62.60;102982.91;6269996;22;47332;-75
2023/02/11 02:09:20;;;;;;;;;54.25;43.75;;;;;9.24;62.64;102980.31;6269724;22;45488;-75
2023/02/11 02:11:46;;;;;;;;;59.00;46.25;;;;;9.26;62.15;102976.75;6271195;22;45567;-76
2023/02/11 02:14:12;;;;;;;;;47.00;41.50;;;;;9.21;62.12;102964.72;6271572;22;45654;-76
2023/02/11 02:16:37;;;;;;;;;58.00;45.25;;;;;9.25;62.66;102980.28;6270838;22;47248;-77
2023/02/11 02:19:32;;;;;;;;;55.25;42.00;;;;;9.23;62.80;102974.22;6243404;22;46001;-78
2023/02/11 02:22:03;;;;;;;;;54.50;43.75;;;;;9.20;62.81;102970.84;6146794;23;45483;-78
2023/02/11 02:25:22;;;;;;;;;58.75;46.25;;;;;9.16;62.91;102970.06;6147042;23;46711;-77
2023/02/11 02:27:54;;;;;;;;;58.75;45.50;;;;;9.13;62.79;102966.66;6087444;23;45551;-76
2023/02/11 02:30:51;;;;;;;;;55.25;42.00;;;;;9.09;62.73;102970.28;6088271;23;45531;-78
2023/02/11 02:33:37;;;;;;;;;59.00;45.75;;;;;9.06;63.07;102965.13;6130647;23;45759;-76
2023/02/11 02:39:30;;;;;;;;;53.50;44.75;;;;;9.04;63.05;102953.84;6146583;22;45536;-78
2023/02/11 02:41:56;;;;;;;;;54.75;45.75;;;;;9.01;62.84;102949.56;6146737;23;45514;-78
2023/02/11 02:44:22;;;;;;;;;57.25;44.50;;;;;8.97;63.02;102952.28;6147261;23;45832;-78
2023/02/11 02:46:48;;;;;;;;;64.25;44.25;;;;;9.03;63.19;102967.81;6146868;23;45603;-78
2023/02/11 02:49:15;;;;;;;;;55.50;46.50;;;;;8.97;63.26;102960.13;6147102;23;45671;-77
2023/02/11 02:55:14;;;;;;;;;57.50;45.75;;;;;8.95;63.33;102954.97;6161931;23;45656;-78
2023/02/11 02:58:18;;;;;;;;;59.75;45.50;;;;;8.88;63.26;102949.94;6176437;23;46509;-76
2023/02/11 03:01:07;;;;;;;;;58.75;44.00;;;;;8.90;63.39;102950.75;6270488;22;46539;-78
2023/02/11 03:03:32;;;;;;;;;61.50;48.00;;;;;8.84;63.46;102946.53;6270798;22;45901;-77
2023/02/11 03:06:10;;;;;;;;;53.75;42.00;;;;;8.81;63.87;102941.38;6271523;22;45480;-78
2023/02/11 03:08:46;;;;;;;;;63.50;45.25;;;;;8.71;63.75;102942.53;6270975;22;47371;-77
2023/02/11 03:11:16;;;;;;;;;62.00;46.00;;;;;8.69;63.90;102952.19;6269080;22;46974;-77
2023/02/11 03:13:43;;;;;;;;;60.75;45.75;;;;;8.63;63.81;102945.34;6271353;22;45756;-78
2023/02/11 03:16:16;;;;;;;;;48.75;43.25;;;;;8.60;64.02;102945.41;6270688;22;45687;-78
2023/02/11 03:18:48;;;;;;;;;55.25;43.25;;;;;8.55;64.06;102943.81;6272583;22;45516;-79
2023/02/11 03:21:15;;;;;;;;;59.75;46.00;;;;;8.53;64.01;102945.63;6271530;22;47521;-77
2023/02/11 03:23:54;;;;;;;;;62.00;49.50;;;;;8.50;63.86;102945.69;6271837;22;45588;-78
2023/02/11 03:26:29;;;;;;;;;65.00;49.00;;;;;8.38;64.03;102929.41;6272054;22;45777;-78
2023/02/11 03:29:33;;;;;;;;;59.25;47.00;;;;;8.49;64.07;102938.72;6271572;22;45570;-79
2023/02/11 03:32:10;;;;;;;;;62.00;49.00;;;;;8.46;64.13;102933.59;6272155;22;45986;-77
2023/02/11 03:34:45;;;;;;;;;61.50;50.00;;;;;8.48;64.17;102937.88;6273189;22;45844;-78
2023/02/11 03:40:37;;;;;;;;;62.75;47.50;;;;;8.38;64.00;102932.03;6270070;22;46018;-77
2023/02/11 03:43:29;;;;;;;;;54.25;44.00;;;;;8.43;64.28;102939.75;6271997;22;46148;-77
2023/02/11 03:45:55;;;;;;;;;65.00;50.00;;;;;8.39;64.42;102930.28;6272155;22;45467;-79
2023/02/11 03:48:29;;;;;;;;;62.50;47.00;;;;;8.34;64.26;102921.69;6272897;22;45501;-74
2023/02/11 03:50:58;;;;;;;;;59.75;46.75;;;;;8.32;64.29;102928.69;6272289;22;46414;-74
2023/02/11 03:57:00;;;;;;;;;58.25;45.75;;;;;8.35;64.32;102932.13;6266769;22;45758;-76
2023/02/11 03:59:27;;;;;;;;;59.25;47.00;;;;;8.33;64.43;102928.66;6272545;22;45656;-76
2023/02/11 04:01:52;;;;;;;;;58.75;45.75;;;;;8.32;64.49;102921.72;6271776;22;45830;-78
2023/02/11 04:04:18;;;;;;;;;55.25;43.25;;;;;8.28;64.56;102920.06;6272166;22;46074;-77
2023/02/11 04:06:44;;;;;;;;;63.00;48.75;;;;;8.29;64.40;102920.91;6271426;22;45952;-76
2023/02/11 04:12:30;;;;;;;;;59.50;46.75;;;;;8.25;64.61;102935.81;6272186;22;45967;-76
2023/02/11 04:14:56;;;;;;;;;58.00;46.50;;;;;8.24;64.49;102939.31;6271219;22;46791;-77
2023/02/11 04:17:21;;;;;;;;;56.50;46.00;;;;;8.16;64.43;102925.56;6272279;22;45674;-77
2023/02/11 04:19:47;;;;;;;;;64.00;48.75;;;;;8.24;64.46;102944.53;6272697;22;45495;-76
2023/02/11 04:22:12;;;;;;;;;56.75;46.00;;;;;8.28;64.41;102955.75;6272446;22;46800;-77
2023/02/11 04:27:59;;;;;;;;;47.50;40.00;;;;;8.30;64.37;102941.81;6271647;22;45613;-76
2023/02/11 04:30:24;;;;;;;;;53.75;45.00;;;;;8.30;64.32;102952.25;6272402;22;45495;-77
2023/02/11 04:32:50;;;;;;;;;51.75;41.50;;;;;8.32;64.47;102955.66;6272063;22;45548;-75
2023/02/11 04:35:15;;;;;;;;;56.25;42.00;;;;;8.29;64.30;102944.41;6271662;22;46238;-76
2023/02/11 04:37:40;;;;;;;;;58.75;43.50;;;;;8.32;64.68;102946.97;6272296;22;45480;-76
2023/02/11 04:43:27;;;;;;;;;61.25;46.75;;;;;8.34;64.41;102955.66;6271776;22;45557;-77
2023/02/11 04:45:56;;;;;;;;;59.25;46.00;;;;;8.35;64.40;102954.75;6271687;22;45532;-75
2023/02/11 04:48:22;;;;;;;;;63.75;47.50;;;;;8.33;64.15;102956.53;6271460;22;45974;-77
2023/02/11 04:50:47;;;;;;;;;55.75;44.75;;;;;8.38;64.28;102957.28;6271965;22;45616;-77
2023/02/11 04:53:12;;;;;;;;;50.75;43.00;;;;;8.35;64.40;102950.41;6272292;22;46478;-76
2023/02/11 04:55:38;;;;;;;;;57.50;44.50;;;;;8.37;64.40;102950.34;6271973;22;45582;-76
2023/02/11 04:58:03;;;;;;;;;51.75;44.25;;;;;8.36;64.41;102954.72;6271757;22;45662;-76
2023/02/11 05:00:28;;;;;;;;;61.50;46.25;;;;;8.35;64.57;102946.91;6272069;22;45659;-77
2023/02/11 05:02:54;;;;;;;;;57.75;46.75;;;;;8.35;64.45;102944.31;6271949;22;47497;-76
2023/02/11 05:05:19;;;;;;;;;57.33;46.00;;;;;8.34;64.28;102939.97;6271811;22;47625;-77
2023/02/11 05:07:44;;;;;;;;;57.50;44.50;;;;;8.28;64.46;102930.50;6271810;22;45505;-77
2023/02/11 05:13:31;;;;;;;;;52.50;43.25;;;;;8.28;64.54;102927.88;6272054;22;45563;-78
2023/02/11 05:15:56;;;;;;;;;53.00;44.25;;;;;8.25;64.63;102921.91;6271582;22;46234;-77
2023/02/11 05:18:22;;;;;;;;;60.00;45.67;;;;;8.23;64.85;102924.53;6244443;22;45707;-73
2023/02/11 05:20:47;;;;;;;;;59.25;44.75;;;;;8.14;64.75;102926.50;6272077;22;45495;-77
2023/02/11 05:23:13;;;;;;;;;55.75;45.25;;;;;8.08;64.63;102917.06;6271970;22;46314;-78
2023/02/11 05:28:59;;;;;;;;;47.50;42.50;;;;;8.08;64.85;102924.91;6271507;22;45783;-77
2023/02/11 05:31:24;;;;;;;;;64.67;46.00;;;;;8.06;64.89;102929.28;6271457;22;45636;-77
2023/02/11 05:33:50;;;;;;;;;56.25;45.50;;;;;8.03;64.89;102921.53;6271161;22;46429;-77
2023/02/11 05:36:16;;;;;;;;;60.25;45.25;;;;;8.02;64.81;102922.44;6271747;22;45645;-77
2023/02/11 05:38:42;;;;;;;;;64.25;48.00;;;;;7.94;64.61;102912.16;6272126;22;45631;-77
2023/02/11 05:41:08;;;;;;;;;59.25;47.25;;;;;8.00;64.59;102922.47;6270348;22;45531;-77
2023/02/11 05:43:36;;;;;;;;;57.75;46.25;;;;;7.98;64.61;102919.03;6271826;22;45882;-76
2023/02/11 05:46:05;;;;;;;;;47.75;42.50;;;;;7.99;64.50;102909.44;6271920;22;46118;-79
2023/02/11 05:48:30;;;;;;;;;53.75;43.50;;;;;8.04;64.73;102922.41;6272298;22;45497;-78
2023/02/11 05:50:56;;;;;;;;;57.25;46.00;;;;;7.94;64.77;102899.09;6271283;22;45499;-78
2023/02/11 05:53:21;;;;;;;;;51.50;45.50;;;;;8.02;64.84;102919.81;6271457;22;47281;-79
2023/02/11 05:59:49;;;;;;;;;54.75;45.75;;;;;7.92;64.92;102913.97;6268836;22;45603;-78
2023/02/11 06:02:14;;;;;;;;;56.50;42.25;;;;;7.94;64.98;102926.94;6271184;22;45475;-75
2023/02/11 06:04:40;;;;;;;;;60.00;46.00;;;;;7.91;65.47;102929.66;6271948;22;46338;-76
2023/02/11 06:07:05;;;;;;;;;57.00;47.00;;;;;7.87;65.35;102928.00;6271278;22;46204;-78
2023/02/11 06:09:31;;;;;;;;;57.00;45.75;;;;;7.85;65.32;102924.56;6271780;22;45650;-77
2023/02/11 06:11:56;;;;;;;;;56.00;43.25;;;;;7.81;65.57;102917.72;6271359;22;45701;-76
2023/02/11 06:14:21;;;;;;;;;50.00;43.00;;;;;7.79;65.55;102917.72;6272008;22;46528;-75
2023/02/11 06:16:47;;;;;;;;;56.50;45.50;;;;;7.75;65.57;102912.63;6272881;22;46967;-77
2023/02/11 06:19:12;;;;;;;;;59.25;47.00;;;;;7.75;65.82;102915.22;6245772;22;45602;-77
2023/02/11 06:21:38;;;;;;;;;54.50;43.25;;;;;7.72;65.77;102917.91;6271777;22;45362;-75
2023/02/11 06:24:05;;;;;;;;;59.00;45.00;;;;;7.62;65.34;102905.94;6271619;22;47126;-78
2023/02/11 06:29:51;;;;;;;;;57.00;43.75;;;;;7.69;65.29;102934.47;6271356;22;45808;-78
2023/02/11 06:32:17;;;;;;;;;54.75;44.50;;;;;7.66;65.60;102931.97;6271186;22;45478;-76
2023/02/11 06:34:43;;;;;;;;;60.75;48.00;;;;;7.63;65.58;102926.78;6271743;22;45400;-74
2023/02/11 06:37:08;;;;;;;;;60.25;45.75;;;;;7.57;65.44;102914.72;6271624;22;46210;-77
2023/02/11 06:39:33;;;;;;;;;63.75;48.75;;;;;7.69;65.55;102944.91;6273734;22;45460;-77
2023/02/11 06:41:59;;;;;;;;;52.25;44.00;;;;;7.65;65.71;102931.97;6273552;22;45754;-77
2023/02/11 06:44:24;;;;;;;;;59.75;45.25;;;;;7.64;65.51;102941.56;6273915;22;46489;-78
2023/02/11 06:46:49;;;;;;;;;50.00;42.50;;;;;7.69;65.55;102939.69;6270773;22;46083;-73
2023/02/11 06:49:15;;;;;;;;;54.50;44.50;;;;;7.66;65.36;102934.56;6270656;22;45496;-73
2023/02/11 06:51:40;;;;;;;;;57.50;46.50;;;;;7.71;65.64;102934.47;6270854;22;45449;-73
2023/02/11 06:54:06;;;;;;;;;62.00;47.00;;;;;7.71;65.59;102940.53;6271098;22;47466;-73
2023/02/11 06:59:54;;;;;;;;;41.00;39.00;;;;;7.74;65.59;102937.84;6266742;22;45781;-73
2023/02/11 07:02:19;;;;;;;;;62.00;46.25;;;;;7.78;65.51;102954.28;6271064;22;45460;-71
2023/02/11 07:04:45;;;;;;;;;44.75;32.75;;;;;7.80;65.58;102952.50;6270816;22;46606;-72
2023/02/11 07:07:10;;;;;;;;;44.75;39.75;;;;;7.78;65.72;102955.16;6272489;22;45663;-72
2023/02/11 07:09:35;;;;;;;;;51.33;42.33;;;;;7.83;65.57;102968.09;6271921;22;45606;-73
2023/02/11 07:15:22;;;;;;;;;51.25;42.00;;;;;7.84;65.44;102981.13;6270711;22;45952;-72
2023/02/11 07:17:47;;;;;;;;;57.50;43.50;;;;;7.86;65.50;102983.69;6270554;22;46334;-72
2023/02/11 07:20:13;;;;;;;;;47.25;39.75;;;;;7.88;65.91;102981.94;6270212;22;45553;-72
2023/02/11 07:22:39;;;;;;;;;60.50;45.50;;;;;7.89;66.16;102978.41;6271118;22;45457;-72
2023/02/11 07:25:05;;;;;;;;;54.50;41.50;;;;;7.86;66.04;102986.31;6270289;22;47106;-73
2023/02/11 07:30:52;;;;;;;;;48.50;39.75;;;;;7.79;66.21;102992.53;6270631;22;45730;-73
2023/02/11 07:33:17;;;;;;;;;42.00;40.00;;;;;7.80;66.10;102999.47;6270332;22;46234;-73
2023/02/11 07:35:43;;;;;;;;;65.00;52.00;;;;;7.81;65.89;103002.06;6270186;22;47481;-72
2023/02/11 07:38:08;;;;;;;;;63.25;45.50;;;;;7.83;66.00;102996.78;6270269;22;45941;-73
2023/02/11 07:40:33;;;;;;;;;49.75;42.75;;;;;7.83;66.08;102996.78;6270013;22;45463;-72
2023/02/11 07:42:59;;;;;;;;;51.50;40.50;;;;;7.77;66.05;102984.78;6270498;22;45393;-71
2023/02/11 07:45:25;;;;;;;;;46.75;41.25;;;;;7.80;66.24;102989.03;6270493;22;45780;-72
2023/02/11 07:47:50;;;;;;;;;56.25;43.00;;;;;7.83;66.05;102988.97;6270815;22;45975;-72
2023/02/11 07:50:16;;;;;;;;;50.67;41.00;;;;;7.85;66.10;102995.88;6270159;22;45442;-71
2023/02/11 07:52:41;;;;;;;;;56.25;46.00;;;;;7.82;66.03;102989.88;6243235;22;45729;-73
2023/02/11 07:55:08;;;;;;;;;60.50;43.50;;;;;7.81;65.90;102989.03;6270042;22;47167;-72
2023/02/11 08:01:02;;;;;;;;;61.00;42.50;;;;;7.88;65.66;102994.97;6265167;22;45698;-71
2023/02/11 08:03:28;;;;;;;;;65.50;52.75;;;;;7.88;66.09;102993.19;6271870;22;45577;-73
2023/02/11 08:05:54;;;;;;;;;53.25;43.25;;;;;7.90;65.97;102985.34;6271431;22;47070;-72
2023/02/11 08:08:19;;;;;;;;;50.00;41.75;;;;;7.90;66.02;102974.91;6271847;22;46018;-73
2023/02/11 08:10:44;;;;;;;;;51.50;42.00;;;;;7.92;65.76;102974.00;6272041;22;45727;-74
2023/02/11 08:16:34;;;;;;;;;56.75;45.00;;;;;7.87;65.59;102980.19;6272501;22;45586;-73
2023/02/11 08:19:05;;;;;;;;;51.50;44.25;;;;;7.89;65.49;102976.66;6272148;22;45638;-73
2023/02/11 08:21:30;;;;;;;;;54.75;44.50;;;;;7.89;65.69;102975.78;6268098;22;45698;-73
2023/02/11 08:23:56;;;;;;;;;60.75;46.00;;;;;7.97;65.57;102990.41;6268617;22;45563;-72
2023/02/11 08:26:26;;;;;;;;;50.50;42.25;;;;;8.01;65.57;102986.81;6269409;22;45583;-73
2023/02/11 08:28:53;;;;;;;;;53.75;43.75;;;;;8.04;65.68;102992.88;6272146;22;45553;-73
2023/02/11 08:31:33;;;;;;;;;50.25;43.00;;;;;8.04;65.69;102991.13;6271444;22;45448;-73
2023/02/11 08:34:01;;;;;;;;;57.25;42.75;;;;;8.08;65.68;102991.91;6271184;22;45539;-74
2023/02/11 08:36:28;;;;;;;;;53.50;44.00;;;;;8.04;65.69;102982.44;6271947;22;46241;-73
2023/02/11 08:38:55;;;;;;;;;60.00;46.00;;;;;8.14;65.62;102989.16;6270982;22;46113;-74
2023/02/11 08:41:21;;;;;;;;;49.75;42.75;;;;;8.17;65.64;102991.69;6272391;22;45782;-72
2023/02/11 08:43:46;;;;;;;;;50.75;43.00;;;;;8.17;65.43;102986.47;6271874;22;45530;-73
2023/02/11 08:46:14;;;;;;;;;53.00;43.00;;;;;8.22;65.31;102990.69;6271741;22;47309;-74
2023/02/11 08:48:40;;;;;;;;;62.00;46.25;;;;;8.19;65.55;102992.53;6272781;22;45453;-72
2023/02/11 08:51:07;;;;;;;;;49.50;42.50;;;;;8.29;65.34;103001.88;6271556;22;45529;-73
2023/02/11 08:53:33;;;;;;;;;62.75;45.25;;;;;8.30;65.40;102988.81;6272034;22;45690;-73
2023/02/11 08:55:58;;;;;;;;;59.00;45.00;;;;;8.34;65.08;103000.91;6270829;22;47492;-74
2023/02/11 09:01:46;;;;;;;;;57.25;44.25;;;;;8.41;65.56;103009.47;6266060;22;45600;-79
2023/02/11 09:04:12;;;;;;;;;53.25;44.25;;;;;8.38;65.50;102999.94;6271082;22;45791;-76
2023/02/11 09:06:37;;;;;;;;;57.75;43.50;;;;;8.44;65.27;103001.53;6270193;22;46593;-78
2023/02/11 09:09:02;;;;;;;;;53.75;43.00;;;;;8.48;65.57;103011.00;6271659;22;46345;-77
2023/02/11 09:11:31;;;;;;;;;53.75;44.50;;;;;8.54;65.12;103013.47;6269687;22;45508;-75
2023/02/11 09:17:18;;;;;;;;;50.25;42.75;;;;;8.62;64.75;102997.63;6271910;22;46074;-77
2023/02/11 09:19:43;;;;;;;;;51.50;43.00;;;;;8.79;64.87;103013.75;6271822;22;46037;-78
2023/02/11 09:22:09;;;;;;;;;56.25;42.75;;;;;8.90;64.84;103016.09;6243429;22;45639;-76
2023/02/11 09:24:34;;;;;;;;;54.00;41.75;;;;;8.92;64.62;102996.84;6271234;22;45565;-79
2023/02/11 09:26:59;;;;;;;;;57.50;41.75;;;;;9.07;64.74;103006.91;6271405;22;46497;-78
2023/02/11 09:29:25;;;;;;;;;42.75;40.25;;;;;9.13;64.26;103000.66;6271445;22;45714;-77
2023/02/11 09:31:50;;;;;;;;;44.25;38.75;;;;;9.16;64.41;102996.22;6271366;22;45727;-76
2023/02/11 09:34:15;;;;;;;;;49.00;40.25;;;;;9.27;64.46;102999.41;6271050;22;45795;-77
2023/02/11 09:36:41;;;;;;;;;46.50;40.25;;;;;9.39;64.25;103002.59;6271658;22;45540;-77
2023/02/11 09:39:11;;;;;;;;;41.50;34.50;;;;;9.47;64.00;103008.44;6269456;22;47095;-76
2023/02/11 09:41:52;;;;;;;;;45.00;40.00;;;;;9.54;63.95;103018.72;6271774;22;45429;-75
2023/02/11 09:47:55;;;;;;;;;50.00;41.75;;;;;9.74;63.84;103012.91;6271626;22;46123;-74
2023/02/11 09:50:26;;;;;;;;;42.75;37.00;;;;;9.82;63.56;103021.41;6246097;22;46379;-76
2023/02/11 09:53:00;;;;;;;;;52.00;39.75;;;;;9.92;63.63;103019.38;6271255;22;45633;-74
2023/02/11 09:55:28;;;;;;;;;35.25;31.75;;;;;9.99;63.70;103019.13;6269643;22;45797;-76
2023/02/11 09:57:58;;;;;;;;;38.50;29.25;;;;;10.06;63.17;103020.66;6271336;22;46899;-76
2023/02/11 10:00:40;;;;;;;;;40.50;36.75;;;;;10.10;63.14;103014.41;6271624;22;46029;-76
2023/02/11 10:03:16;;;;;;;;;44.75;38.75;;;;;10.14;62.80;103016.97;6244054;22;45877;-76
2023/02/11 10:06:12;;;;;;;;;43.00;38.75;;;;;10.19;62.79;103010.72;6270811;22;45529;-77
2023/02/11 10:09:06;;;;;;;;;44.50;36.75;;;;;10.24;62.79;103010.56;6270969;22;46522;-76
2023/02/11 10:11:59;;;;;;;;;45.25;39.75;;;;;10.28;62.66;103020.03;6271320;22;46304;-77
2023/02/11 10:14:43;;;;;;;;;45.00;39.25;;;;;10.33;62.57;103021.63;6271075;22;45639;-76
2023/02/11 10:17:08;;;;;;;;;46.75;39.00;;;;;10.40;62.50;103019.66;6272489;22;45386;-77
2023/02/11 10:19:46;;;;;;;;;48.33;38.67;;;;;10.49;62.54;103021.97;6271352;22;46266;-78
2023/02/11 10:22:34;;;;;;;;;42.50;38.00;;;;;10.57;62.10;103009.50;6271723;22;47176;-76
2023/02/11 10:25:16;;;;;;;;;45.50;41.00;;;;;10.57;61.93;103008.66;6271579;22;45589;-76
2023/02/11 10:31:16;;;;;;;;;51.75;41.75;;;;;10.69;61.84;103009.06;6271279;22;45938;-77
2023/02/11 10:33:45;;;;;;;;;53.00;40.75;;;;;10.78;61.78;103008.78;6270924;22;47082;-78
2023/02/11 10:36:11;;;;;;;;;46.50;40.00;;;;;10.81;61.63;103006.06;6270882;22;45682;-75
2023/02/11 10:38:37;;;;;;;;;45.75;40.25;;;;;10.77;61.35;103004.44;6271702;22;45511;-76
2023/02/11 10:41:03;;;;;;;;;41.50;37.75;;;;;10.87;61.41;103026.84;6271503;22;45468;-77
2023/02/11 10:46:51;;;;;;;;;47.75;41.00;;;;;10.84;61.32;103015.59;6271283;22;45592;-78
2023/02/11 10:49:43;;;;;;;;;48.00;40.00;;;;;10.86;61.52;103025.13;6271186;22;45601;-79
2023/02/11 10:52:18;;;;;;;;;55.00;45.75;;;;;10.87;61.38;103034.69;6271612;22;46515;-78
2023/02/11 10:55:00;;;;;;;;;52.00;42.25;;;;;10.86;61.33;103024.25;6271546;22;45963;-78
2023/02/11 10:57:31;;;;;;;;;47.75;39.50;;;;;10.87;61.40;103023.34;6270946;22;45519;-78
2023/02/11 11:03:39;;;;;;;;;37.25;30.75;;;;;10.84;61.36;103019.09;6265632;22;46092;-78
2023/02/11 11:06:07;;;;;;;;;40.50;35.75;;;;;10.79;61.41;103015.75;6270277;22;46293;-78
2023/02/11 11:08:45;;;;;;;;;40.50;36.00;;;;;10.83;61.46;103016.50;6270653;22;45458;-79
2023/02/11 11:11:16;;;;;;;;;45.00;38.75;;;;;10.72;61.32;103001.13;6270863;22;45749;-78
2023/02/11 11:13:50;;;;;;;;;39.25;33.75;;;;;10.82;61.53;103007.78;6271113;22;46357;-78
2023/02/11 11:16:18;;;;;;;;;42.00;38.50;;;;;10.80;61.41;103012.19;6270703;22;46027;-77
2023/02/11 11:18:46;;;;;;;;;48.50;39.00;;;;;10.81;61.42;103013.91;6270933;22;45784;-78
2023/02/11 11:21:18;;;;;;;;;48.00;39.50;;;;;10.83;61.44;103006.00;6269863;22;45768;-75
2023/02/11 11:24:15;;;;;;;;;39.25;37.50;;;;;10.84;61.44;103005.13;6270009;22;45474;-78
2023/02/11 11:26:45;;;;;;;;;39.75;36.75;;;;;10.79;61.75;102993.91;6226812;22;45411;-76
2023/02/11 11:29:16;;;;;;;;;51.50;40.25;;;;;10.87;61.50;103003.22;6242692;22;45770;-73
2023/02/11 11:31:55;;;;;;;;;47.00;39.00;;;;;10.95;61.44;103000.38;6270491;22;45436;-71
2023/02/11 11:34:31;;;;;;;;;51.25;42.50;;;;;11.01;61.37;102997.53;6270211;22;45921;-71
2023/02/11 11:36:59;;;;;;;;;45.75;40.25;;;;;11.06;61.27;103003.47;6269932;22;47087;-73
2023/02/11 11:39:29;;;;;;;;;56.25;43.25;;;;;11.11;61.05;102995.44;6271391;22;45550;-70
2023/02/11 11:42:04;;;;;;;;;48.25;41.00;;;;;11.13;60.84;102994.47;6272022;22;45467;-72
2023/02/11 11:44:35;;;;;;;;;52.75;40.50;;;;;11.15;60.82;102986.53;6271253;22;46477;-73
2023/02/11 11:47:06;;;;;;;;;45.00;38.75;;;;;11.22;60.95;102994.16;6272021;22;46040;-73
2023/02/11 11:49:37;;;;;;;;;41.75;37.75;;;;;11.28;60.99;102990.47;6272145;22;45807;-80
2023/02/11 11:52:34;;;;;;;;;41.00;36.25;;;;;11.34;61.19;102990.22;6272772;22;45612;-81
2023/02/11 11:55:30;;;;;;;;;41.50;36.50;;;;;11.36;60.86;102986.63;6146694;23;46553;-73
2023/02/11 11:57:56;;;;;;;;;40.50;35.00;;;;;11.43;60.81;102991.66;6087564;23;47222;-73
2023/02/11 12:00:36;;;;;;;;;40.75;36.00;;;;;11.48;60.81;102982.72;6087663;23;45736;-73
2023/02/11 12:03:26;;;;;;;;;33.00;31.75;;;;;11.51;61.12;102987.84;6088681;23;45673;-73
2023/02/11 12:06:08;;;;;;;;;38.75;32.75;;;;;11.57;60.57;102987.59;6088499;23;46506;-74
2023/02/11 12:08:54;;;;;;;;;38.75;35.75;;;;;11.60;60.79;102977.00;6087647;23;47200;-71
2023/02/11 12:11:32;;;;;;;;;40.00;35.75;;;;;11.63;60.54;102986.53;6088578;23;45579;-72
2023/02/11 12:14:06;;;;;;;;;31.00;29.75;;;;;11.64;60.77;102981.22;6088191;23;45497;-73
2023/02/11 12:16:57;;;;;;;;;36.50;32.50;;;;;11.67;60.65;102969.72;6087860;23;46355;-72
2023/02/11 12:19:29;;;;;;;;;38.25;34.75;;;;;11.68;60.62;102969.69;6087649;23;46118;-72
2023/02/11 12:22:11;;;;;;;;;34.00;31.50;;;;;11.70;60.74;102978.38;6063181;23;45484;-72
2023/02/11 12:25:07;;;;;;;;;33.25;29.75;;;;;11.72;60.60;102971.28;6087412;23;45834;-73
2023/02/11 12:28:16;;;;;;;;;30.25;27.25;;;;;11.73;60.41;102965.16;6087239;23;46589;-72
2023/02/11 12:34:24;;;;;;;;;30.50;24.75;;;;;11.78;60.38;102964.97;6071249;23;45546;-70
2023/02/11 12:37:17;;;;;;;;;25.75;24.50;;;;;11.78;60.33;102965.81;6147230;23;45715;-74
2023/02/11 12:39:50;;;;;;;;;33.50;30.25;;;;;11.83;60.18;102965.66;6146576;23;45764;-74
2023/02/11 12:45:32;;;;;;;;;32.50;27.50;;;;;11.84;60.08;102956.00;6146806;23;45658;-70
2023/02/11 12:48:24;;;;;;;;;35.50;30.50;;;;;11.90;59.90;102959.25;6147289;23;45774;-72
2023/02/11 12:51:06;;;;;;;;;31.00;27.00;;;;;11.93;59.94;102956.50;6146947;23;45578;-71
2023/02/11 12:53:52;;;;;;;;;33.00;26.25;;;;;11.93;59.94;102948.59;6147928;23;46164;-74
2023/02/11 12:56:25;;;;;;;;;30.25;25.75;;;;;12.00;59.72;102959.75;6146378;23;45741;-72
2023/02/11 12:58:56;;;;;;;;;34.50;30.00;;;;;11.98;59.59;102948.44;6148231;23;45605;-73
2023/02/11 13:01:30;;;;;;;;;31.50;25.75;;;;;11.97;59.68;102944.13;6146721;23;45546;-72
2023/02/11 13:04:08;;;;;;;;;34.25;31.75;;;;;11.99;59.77;102935.22;6196754;22;46177;-72
2023/02/11 13:06:39;;;;;;;;;36.50;31.50;;;;;11.95;59.65;102943.31;6210544;22;45560;-77
2023/02/11 13:09:15;;;;;;;;;33.25;31.25;;;;;11.98;59.48;102945.81;6270138;22;45564;-73
2023/02/11 13:11:50;;;;;;;;;37.50;35.25;;;;;11.96;59.61;102938.00;6271047;22;47022;-75